Flugplatz Wiesbaden Army Airfield

Bericht für ETOU

vom 22.03. um 20:56 UTC

kein Wind

Sichtweite 10 km oder mehr

keine Wolken

Temperatur 7.1°C

Taupunkt 2.0°C

Luftfeuchtigkeit 70%

Luftdruck 1027 hPa

ETOU 222056Z AUTO 00000KT 9999 CLR 07/02 A3034 RMK AO2 SLP278 T00710020 50002 $

Prognose für ETOU

vom 22.03. um 12:03 UTC

Zwischen 12:00 UTC und 10:00 UTC

variable Windrichtung mit 6 kt

Sichtweite 10 km oder mehr

gering bewölkt in 17000 ft


Am 23.03. zwischen 10:00 und 11:00 UTC übergehend zu

Wind 9 kt aus 330°

Sichtweite 10 km oder mehr

aufgelockert bewölkt in 3000 ft

TAF ETOU 221203Z 2212/2318 VRB06KT 9999 FEW170 QNH3037INS BECMG 2310/2311 33009KT 9999 SCT030 QNH3034INS TX18/2215Z TN01/2306Z
Impressum